Time;durP1;ratioP1;P1;durP2;ratioP2;P2;SDS_P1;SDS_P2;PMS_P1;PMS_P2;Temp;Humidity;BMP_temperature;BMP_pressure;BME280_temperature;BME280_humidity;BME280_pressure;Samples;Min_cycle;Max_cycle;Signal;HPM_P1;HPM_P2
2022/03/11 00:01:27;;;;;;;8.70;4.72;;;;;;;-9.73;100.00;101635.53;1689299;83;21153;-80
2022/03/11 00:03:55;;;;;;;8.25;3.45;;;;;;;-9.73;100.00;101625.83;1689353;83;21650;-80
2022/03/11 00:06:22;;;;;;;12.33;3.60;;;;;;;-9.72;100.00;101630.06;1689552;83;21077;-81
2022/03/11 00:08:51;;;;;;;8.98;3.98;;;;;;;-9.74;100.00;101626.67;1689562;83;21104;-82
2022/03/11 00:11:18;;;;;;;8.98;5.08;;;;;;;-9.75;100.00;101628.33;1689298;83;21304;-87
2022/03/11 00:13:45;;;;;;;8.35;3.87;;;;;;;-9.76;100.00;101619.48;1689938;83;21156;-87
2022/03/11 00:16:13;;;;;;;8.13;5.12;;;;;;;-9.76;100.00;101625.78;1689813;83;21041;-82
2022/03/11 00:18:40;;;;;;;7.10;2.50;;;;;;;-9.75;100.00;101627.48;1689707;83;21069;-83
2022/03/11 00:21:12;;;;;;;9.15;4.90;;;;;;;-9.76;100.00;101618.22;1704527;82;21046;-83
2022/03/11 00:23:40;;;;;;;10.50;3.80;;;;;;;-9.77;100.00;101613.56;1694508;82;22160;-80
2022/03/11 00:26:10;;;;;;;8.50;4.78;;;;;;;-9.79;100.00;101615.61;1689396;83;21092;-80
2022/03/11 00:28:38;;;;;;;6.40;2.85;;;;;;;-9.80;100.00;101607.20;1688905;83;21052;-81
2022/03/11 00:31:06;;;;;;;9.68;4.40;;;;;;;-9.81;100.00;101617.26;1689180;83;21168;-82
2022/03/11 00:33:34;;;;;;;9.98;4.65;;;;;;;-9.81;100.00;101615.58;1689204;83;21041;-81
2022/03/11 00:36:01;;;;;;;9.23;3.72;;;;;;;-9.81;100.00;101608.44;1689161;83;21628;-83
2022/03/11 00:38:28;;;;;;;9.00;4.28;;;;;;;-9.83;100.00;101610.50;1689265;83;21519;-81
2022/03/11 00:40:59;;;;;;;6.37;3.45;;;;;;;-9.83;100.00;101605.47;1689045;83;21088;-82
2022/03/11 00:43:25;;;;;;;10.30;5.35;;;;;;;-9.83;100.00;101609.64;1687925;83;21558;-80
2022/03/11 00:45:54;;;;;;;10.50;4.58;;;;;;;-9.83;100.00;101610.50;1689277;83;21101;-83
2022/03/11 00:48:22;;;;;;;12.82;5.08;;;;;;;-9.84;100.00;101607.53;1689139;83;21234;-81
2022/03/11 00:50:49;;;;;;;12.63;4.67;;;;;;;-9.82;100.00;101611.34;1689338;83;21042;-81
2022/03/11 00:53:15;;;;;;;7.75;4.05;;;;;;;-9.82;100.00;101607.56;1689379;83;21041;-80
2022/03/11 00:55:43;;;;;;;8.90;4.45;;;;;;;-9.80;100.00;101617.67;1689250;83;21086;-81
2022/03/11 00:58:09;;;;;;;12.37;4.33;;;;;;;-9.80;100.00;101610.11;1689665;83;21064;-81
2022/03/11 01:00:36;;;;;;;11.00;4.92;;;;;;;-9.81;100.00;101605.49;1662773;84;21836;-80
2022/03/11 01:03:03;;;;;;;9.65;4.40;;;;;;;-9.79;100.00;101604.27;1621367;87;21068;-81
2022/03/11 01:05:29;;;;;;;10.30;4.12;;;;;;;-9.78;100.00;101606.84;1660525;85;21023;-82
2022/03/11 01:08:02;;;;;;;13.78;4.25;;;;;;;-9.77;100.00;101603.90;1660714;85;21086;-81
2022/03/11 01:10:36;;;;;;;;;;;;;;;-9.78;100.00;101604.32;1663308;85;21110;-80
2022/03/11 01:13:07;;;;;;;11.08;4.70;;;;;;;-9.78;100.00;101616.05;1660620;85;20235;-80
2022/03/11 01:15:34;;;;;;;10.88;4.12;;;;;;;-9.78;100.00;101605.97;1660512;85;21083;-82
2022/03/11 01:18:00;;;;;;;9.20;4.28;;;;;;;-9.79;100.00;101606.78;1660533;85;21059;-80
2022/03/11 01:20:27;;;;;;;6.97;4.20;;;;;;;-9.79;100.00;101605.13;1660655;85;21068;-80
2022/03/11 01:22:55;;;;;;;11.55;5.15;;;;;;;-9.78;100.00;101608.10;1660311;85;21004;-81
2022/03/11 01:25:21;;;;;;;8.33;4.87;;;;;;;-9.78;100.00;101611.02;1660545;85;21239;-80
2022/03/11 01:27:50;;;;;;;11.00;4.35;;;;;;;-9.77;100.00;101604.73;1660512;84;20960;-81
2022/03/11 01:30:17;;;;;;;10.48;5.20;;;;;;;-9.75;100.00;101604.80;1660484;85;21126;-80
2022/03/11 01:32:44;;;;;;;7.55;3.37;;;;;;;-9.74;100.00;101600.20;1660641;85;21036;-82
2022/03/11 01:35:11;;;;;;;5.47;3.02;;;;;;;-9.74;100.00;101605.25;1682157;83;21575;-81
2022/03/11 01:37:40;;;;;;;8.03;4.28;;;;;;;-9.75;100.00;101598.50;1664136;83;21759;-81
2022/03/11 01:40:09;;;;;;;6.65;4.08;;;;;;;-9.74;100.00;101602.73;1660220;85;21552;-81
2022/03/11 01:42:36;;;;;;;5.60;3.00;;;;;;;-9.75;100.00;101598.08;1660416;85;21087;-81
2022/03/11 01:45:06;;;;;;;9.43;4.45;;;;;;;-9.75;100.00;101601.02;1660475;85;21138;-81
2022/03/11 01:47:33;;;;;;;4.62;2.65;;;;;;;-9.76;100.00;101603.09;1660360;85;21213;-86
2022/03/11 01:50:04;;;;;;;9.30;4.25;;;;;;;-9.77;100.00;101592.55;1660581;85;21653;-82
2022/03/11 01:52:31;;;;;;;8.73;4.25;;;;;;;-9.76;100.00;101605.61;1660456;85;21067;-81
2022/03/11 01:54:58;;;;;;;8.80;4.67;;;;;;;-9.79;100.00;101601.73;1660611;85;21028;-82
2022/03/11 01:57:26;;;;;;;11.28;5.05;;;;;;;-9.79;100.00;101612.70;1660435;85;21102;-81
2022/03/11 01:59:57;;;;;;;8.93;4.40;;;;;;;-9.80;100.00;101608.85;1669630;84;21093;-82
2022/03/11 02:02:25;;;;;;;14.25;5.62;;;;;;;-9.83;100.00;101615.55;1679055;84;21371;-83
2022/03/11 02:04:53;;;;;;;8.00;4.47;;;;;;;-9.83;100.00;101614.29;1678464;84;21512;-81
2022/03/11 02:07:21;;;;;;;11.68;4.80;;;;;;;-9.83;100.00;101614.29;1679015;84;21118;-83
2022/03/11 02:09:48;;;;;;;10.70;4.97;;;;;;;-9.83;100.00;101610.50;1679032;84;21057;-80
2022/03/11 02:12:35;;;;;;;6.53;3.77;;;;;;;-9.81;100.00;101618.52;1678400;84;21894;-80
2022/03/11 02:15:09;;;;;;;9.60;4.03;;;;;;;-9.79;100.00;101608.05;1679031;84;21126;-80
2022/03/11 02:17:36;;;;;;;10.18;5.10;;;;;;;-9.79;100.00;101616.86;1679028;84;21512;-81
2022/03/11 02:20:05;;;;;;;8.60;4.35;;;;;;;-9.79;100.00;101612.70;1679034;84;20991;-83
2022/03/11 02:22:36;;;;;;;10.90;5.80;;;;;;;-9.77;100.00;101613.56;1679241;84;21077;-82
2022/03/11 02:25:07;;;;;;;10.95;5.47;;;;;;;-9.76;100.00;101611.91;1689679;83;21109;-82
2022/03/11 02:27:38;;;;;;;10.30;4.67;;;;;;;-9.73;100.00;101614.09;1689240;83;21145;-83
2022/03/11 02:30:15;;;;;;;13.48;5.75;;;;;;;-9.73;100.00;101610.70;1691998;83;21084;-84
2022/03/11 02:32:43;;;;;;;11.48;4.45;;;;;;;-9.71;100.00;101617.52;1689643;83;21302;-87
2022/03/11 02:35:10;;;;;;;12.43;6.17;;;;;;;-9.68;100.00;101621.78;1701137;82;21057;-86
2022/03/11 02:37:39;;;;;;;9.08;4.62;;;;;;;-9.67;100.00;101628.11;1705187;82;21101;-80
2022/03/11 02:40:08;;;;;;;12.68;5.20;;;;;;;-9.63;100.00;101625.25;1718216;82;21290;-82
2022/03/11 02:42:35;;;;;;;7.78;3.92;;;;;;;-9.61;100.00;101625.31;1717769;82;21054;-83
2022/03/11 02:45:06;;;;;;;10.63;5.40;;;;;;;-9.59;100.00;101622.01;1712690;82;21046;-81
2022/03/11 02:47:33;;;;;;;13.28;7.22;;;;;;;-9.55;100.00;101620.41;1707981;82;21519;-80
2022/03/11 02:50:00;;;;;;;14.13;6.28;;;;;;;-9.53;100.00;101618.75;1657279;84;21574;-82
2022/03/11 02:52:28;;;;;;;15.65;6.97;;;;;;;-9.51;100.00;101624.30;1689112;83;21159;-84
2022/03/11 02:54:55;;;;;;;15.00;7.42;;;;;;;-9.48;100.00;101615.95;1713515;82;21113;-82
2022/03/11 02:57:22;;;;;;;14.35;6.12;;;;;;;-9.43;100.00;101621.11;1717709;82;21030;-81
2022/03/11 02:59:49;;;;;;;13.30;5.90;;;;;;;-9.40;100.00;101622.42;1716918;82;21117;-82
2022/03/11 03:02:16;;;;;;;15.68;7.50;;;;;;;-9.38;100.00;101628.36;1670084;84;21565;-82
2022/03/11 03:04:43;;;;;;;11.60;6.62;;;;;;;-9.35;100.00;101632.23;1648950;84;21829;-81
2022/03/11 03:07:11;;;;;;;15.83;6.85;;;;;;;-9.34;100.00;101627.63;1646145;84;21040;-81
2022/03/11 03:09:41;;;;;;;13.80;6.25;;;;;;;-9.32;100.00;101630.18;1651729;84;21097;-81
2022/03/11 03:12:10;;;;;;;12.13;5.90;;;;;;;-9.30;100.00;101632.34;1654680;84;21092;-82
2022/03/11 03:14:38;;;;;;;13.88;6.70;;;;;;;-9.29;100.00;101633.63;1643790;85;21048;-81
2022/03/11 03:17:06;;;;;;;13.72;6.87;;;;;;;-9.27;100.00;101633.27;1645835;84;22065;-82
2022/03/11 03:19:35;;;;;;;22.93;10.88;;;;;;;-9.25;100.00;101639.17;1671310;84;21076;-80
2022/03/11 03:22:04;;;;;;;19.42;11.85;;;;;;;-9.26;100.00;101641.28;1671187;84;21068;-83
2022/03/11 03:24:31;;;;;;;13.25;6.22;;;;;;;-9.25;100.00;101645.91;1669780;85;21064;-86
2022/03/11 03:26:58;;;;;;;13.55;7.22;;;;;;;-9.26;100.00;101645.06;1670155;85;21840;-87
2022/03/11 03:29:24;;;;;;;11.83;7.35;;;;;;;-9.26;100.00;101645.06;1658233;85;21236;-86
2022/03/11 03:31:57;;;;;;;13.93;7.53;;;;;;;-9.25;100.00;101648.00;1643916;85;21510;-86
2022/03/11 03:34:24;;;;;;;12.58;5.95;;;;;;;-9.24;100.00;101650.97;1660668;84;21012;-82
2022/03/11 03:36:51;;;;;;;16.27;7.35;;;;;;;-9.25;100.00;101648.00;1633469;85;21682;-81
2022/03/11 03:39:18;;;;;;;9.95;5.50;;;;;;;-9.25;100.00;101644.22;1620939;87;21731;-82
2022/03/11 03:41:45;;;;;;;10.75;5.97;;;;;;;-9.25;100.00;101644.22;1622210;87;21246;-82
2022/03/11 03:44:12;;;;;;;11.18;5.45;;;;;;;-9.26;100.00;101645.06;1632475;86;21051;-82
2022/03/11 03:46:39;;;;;;;12.05;5.60;;;;;;;-9.25;100.00;101651.79;1633611;86;21130;-85
2022/03/11 03:49:09;;;;;;;11.20;6.03;;;;;;;-9.26;100.00;101651.77;1643253;85;21045;-82
2022/03/11 03:51:41;;;;;;;13.98;6.15;;;;;;;-9.28;100.00;101657.17;1646675;85;21158;-81
2022/03/11 03:54:09;;;;;;;15.55;6.22;;;;;;;-9.30;100.00;101658.83;1620270;87;21251;-81
2022/03/11 03:56:39;;;;;;;11.35;5.97;;;;;;;-9.31;100.00;101664.69;1644242;85;21130;-81
2022/03/11 03:59:08;;;;;;;10.88;6.03;;;;;;;-9.31;100.00;101673.09;1643130;85;21105;-80
2022/03/11 04:01:38;;;;;;;11.97;5.87;;;;;;;-9.31;100.00;101670.58;1662438;84;21450;-82
2022/03/11 04:04:07;;;;;;;11.83;6.30;;;;;;;-9.32;100.00;101673.91;1664788;84;21123;-82
2022/03/11 04:06:35;;;;;;;12.93;6.15;;;;;;;-9.31;100.00;101671.84;1663681;84;21228;-80
2022/03/11 04:09:07;;;;;;;11.25;6.55;;;;;;;-9.29;100.00;101675.68;1663804;84;21036;-81
2022/03/11 04:11:35;;;;;;;11.48;5.85;;;;;;;-9.30;100.00;101677.33;1662460;86;21076;-80
2022/03/11 04:14:03;;;;;;;13.08;6.70;;;;;;;-9.29;100.00;101684.09;1639281;86;21012;-81
2022/03/11 04:16:33;;;;;;;15.25;5.95;;;;;;;-9.30;100.00;101681.12;1638129;86;21070;-82
2022/03/11 04:19:00;;;;;;;18.07;6.30;;;;;;;-9.29;100.00;101687.03;1637505;86;21889;-81
2022/03/11 04:21:28;;;;;;;11.97;5.92;;;;;;;-9.29;100.00;101700.48;1637353;86;21126;-84
2022/03/11 04:23:55;;;;;;;12.10;5.92;;;;;;;-9.26;100.00;101699.70;1642803;84;21031;-81
2022/03/11 04:26:23;;;;;;;11.63;5.95;;;;;;;-9.26;100.00;101696.79;1648162;86;21588;-82
2022/03/11 04:28:51;;;;;;;14.23;6.25;;;;;;;-9.24;100.00;101696.81;1637775;86;21485;-82
2022/03/11 04:31:18;;;;;;;11.78;5.72;;;;;;;-9.23;100.00;101704.41;1637703;86;21329;-80
2022/03/11 04:33:46;;;;;;;11.15;5.10;;;;;;;-9.23;100.00;101708.20;1638097;86;21071;-81
2022/03/11 04:36:13;;;;;;;12.28;5.87;;;;;;;-9.24;100.00;101710.27;1647489;86;21103;-82
2022/03/11 04:38:45;;;;;;;13.55;6.37;;;;;;;-9.23;100.00;101707.36;1644541;84;21035;-82
2022/03/11 04:41:12;;;;;;;;;;;;;;;-9.23;100.00;101716.19;1645887;86;21060;-80
2022/03/11 04:43:39;;;;;;;11.97;6.03;;;;;;;-9.22;100.00;101711.59;1657518;85;21303;-81
2022/03/11 04:46:06;;;;;;;13.83;6.75;;;;;;;-9.21;100.00;101720.84;1652771;84;21179;-82
2022/03/11 04:48:36;;;;;;;11.78;5.95;;;;;;;-9.22;100.00;101721.27;1642570;86;21063;-83
2022/03/11 04:51:03;;;;;;;11.70;6.45;;;;;;;-9.21;100.00;101720.45;1641336;86;21076;-81
2022/03/11 04:53:30;;;;;;;15.13;6.67;;;;;;;-9.18;100.00;101718.83;1638049;86;21127;-83
2022/03/11 04:55:58;;;;;;;12.28;6.08;;;;;;;-9.20;100.00;101719.64;1645894;84;21233;-81
2022/03/11 04:58:27;;;;;;;14.70;6.70;;;;;;;-9.16;100.00;101729.40;1658370;84;21094;-81
2022/03/11 05:00:55;;;;;;;12.93;6.20;;;;;;;-9.15;100.00;101726.06;1644064;85;21007;-81
2022/03/11 05:03:23;;;;;;;16.48;7.22;;;;;;;-9.14;100.00;101727.77;1654048;84;21027;-81
2022/03/11 05:05:50;;;;;;;12.68;6.85;;;;;;;-9.12;100.00;101722.75;1700766;83;21082;-80
2022/03/11 05:08:17;;;;;;;13.65;6.72;;;;;;;-9.10;100.00;101735.01;1695992;82;21934;-82
2022/03/11 05:10:46;;;;;;;16.32;8.53;;;;;;;-9.07;100.00;101734.67;1695791;82;21721;-81
2022/03/11 05:13:13;;;;;;;13.08;7.65;;;;;;;-9.02;100.00;101741.48;1689465;83;21084;-81
2022/03/11 05:15:41;;;;;;;11.80;6.67;;;;;;;-9.02;100.00;101744.01;1655458;86;21097;-81
2022/03/11 05:18:11;;;;;;;14.95;7.97;;;;;;;-9.01;100.00;101745.72;1691018;83;21583;-83
2022/03/11 05:20:38;;;;;;;16.30;7.72;;;;;;;-9.00;100.00;101749.95;1689431;83;21266;-81
2022/03/11 05:23:05;;;;;;;15.18;7.70;;;;;;;-9.00;100.00;101749.53;1697058;83;21081;-80
2022/03/11 05:25:34;;;;;;;15.13;6.50;;;;;;;-8.99;100.00;101754.19;1691482;83;21069;-80
2022/03/11 05:28:04;;;;;;;12.00;6.87;;;;;;;-8.95;100.00;101758.09;1708023;82;21093;-80
2022/03/11 05:30:31;;;;;;;15.23;8.67;;;;;;;-8.89;100.00;101759.48;1718283;82;21097;-87
2022/03/11 05:32:58;;;;;;;17.98;8.23;;;;;;;-8.80;100.00;101758.84;1715530;82;21132;-84
2022/03/11 05:35:25;;;;;;;14.40;7.60;;;;;;;-8.71;100.00;101769.58;1718248;82;21081;-83
2022/03/11 05:37:52;;;;;;;12.23;7.53;;;;;;;-8.65;100.00;101768.87;1706980;82;21105;-81
2022/03/11 05:40:19;;;;;;;14.63;6.90;;;;;;;-8.62;100.00;101768.53;1689557;83;21042;-83
2022/03/11 05:42:46;;;;;;;13.78;7.72;;;;;;;-8.56;100.00;101772.84;1690708;82;21668;-84
2022/03/11 05:45:13;;;;;;;13.43;7.80;;;;;;;-8.49;100.00;101768.79;1689407;83;21051;-84
2022/03/11 05:47:40;;;;;;;13.50;7.50;;;;;;;-8.48;100.00;101770.50;1695838;82;21086;-83
2022/03/11 05:50:08;;;;;;;16.50;7.55;;;;;;;-8.47;100.00;101777.27;1691155;83;21085;-81
2022/03/11 05:52:41;;;;;;;17.40;8.00;;;;;;;-8.43;100.00;101778.98;1689261;83;21141;-80
2022/03/11 05:55:09;;;;;;;15.43;8.63;;;;;;;-8.40;100.00;101780.33;1689114;83;21143;-80
2022/03/11 05:57:37;;;;;;;19.85;10.18;;;;;;;-8.35;100.00;101781.70;1690565;83;21862;-79
2022/03/11 06:00:08;;;;;;;34.33;16.35;;;;;;;-8.25;100.00;101783.19;1715262;83;21045;-81
2022/03/11 06:02:42;;;;;;;20.52;11.18;;;;;;;-8.17;100.00;101781.23;1705787;82;21078;-86
2022/03/11 06:05:10;;;;;;;23.92;10.10;;;;;;;-8.12;100.00;101784.31;1707085;82;21106;-88
2022/03/11 06:07:38;;;;;;;20.88;10.65;;;;;;;-8.14;100.00;101783.41;1708028;82;21041;-85
2022/03/11 06:10:06;;;;;;;19.42;9.83;;;;;;;-8.14;100.00;101783.41;1683598;82;21292;-81
2022/03/11 06:12:35;;;;;;;18.07;9.63;;;;;;;-8.10;100.00;101786.86;1678309;84;21094;-81
2022/03/11 06:15:08;;;;;;;15.88;8.45;;;;;;;-7.99;100.00;101789.20;1704048;82;21041;-83
2022/03/11 06:17:35;;;;;;;16.73;8.08;;;;;;;-7.88;100.00;101789.81;1694861;82;21105;-81
2022/03/11 06:20:08;;;;;;;14.50;7.85;;;;;;;-7.86;100.00;101786.91;1695899;82;21653;-82
2022/03/11 06:22:36;;;;;;;12.13;6.17;;;;;;;-7.85;100.00;101786.94;1693749;82;21394;-83
2022/03/11 06:25:04;;;;;;;12.85;7.15;;;;;;;-7.81;100.00;101787.45;1657544;85;21114;-80
2022/03/11 06:27:33;;;;;;;13.13;7.10;;;;;;;-7.79;100.00;101787.47;1694942;83;21531;-86
2022/03/11 06:30:04;;;;;;;14.03;7.60;;;;;;;-7.80;100.00;101794.61;1635975;86;21085;-85
2022/03/11 06:32:30;;;;;;;;;;;;;;;-7.78;100.00;101784.99;1714619;82;21050;-82
2022/03/11 06:34:59;;;;;;;12.63;7.03;;;;;;;-7.68;100.00;101796.13;1717059;82;21151;-81
2022/03/11 06:37:26;;;;;;;12.90;7.03;;;;;;;-7.57;100.00;101790.44;1717704;82;21042;-81
2022/03/11 06:39:53;;;;;;;13.25;6.92;;;;;;;-7.54;100.00;101790.08;1718412;82;21045;-81
2022/03/11 06:42:23;;;;;;;13.18;7.22;;;;;;;-7.56;100.00;101789.58;1718277;82;21030;-82
2022/03/11 06:44:50;;;;;;;18.53;8.47;;;;;;;-7.58;100.00;101793.36;1707101;82;21018;-81
2022/03/11 06:47:17;;;;;;;14.53;7.70;;;;;;;-7.57;100.00;101787.48;1689884;83;21916;-82
2022/03/11 06:49:44;;;;;;;13.85;7.75;;;;;;;-7.55;100.00;101779.52;1693802;82;21014;-81
2022/03/11 06:52:10;;;;;;;13.53;6.80;;;;;;;-7.48;100.00;101780.06;1689575;83;21074;-82
2022/03/11 06:54:37;;;;;;;14.33;7.22;;;;;;;-7.41;100.00;101784.80;1698127;82;21094;-80
2022/03/11 06:57:05;;;;;;;13.62;7.35;;;;;;;-7.38;100.00;101789.93;1689430;83;21029;-83
2022/03/11 06:59:33;;;;;;;15.80;7.22;;;;;;;-7.35;100.00;101786.20;1689427;83;21252;-82
2022/03/11 07:02:00;;;;;;;14.53;7.12;;;;;;;-7.34;100.00;101790.84;1636512;86;21077;-79
2022/03/11 07:04:29;;;;;;;15.68;7.37;;;;;;;-7.27;100.00;101786.75;1689476;83;21073;-80
2022/03/11 07:06:56;;;;;;;14.00;7.78;;;;;;;-7.19;100.00;101783.94;1689624;83;21108;-82
2022/03/11 07:09:23;;;;;;;13.53;7.35;;;;;;;-7.14;100.00;101788.25;1691032;83;20950;-82
2022/03/11 07:11:51;;;;;;;16.17;8.05;;;;;;;-7.05;100.00;101790.08;1656397;85;21122;-82
2022/03/11 07:14:17;;;;;;;14.50;7.72;;;;;;;-7.01;100.00;101790.55;1689470;83;21057;-82
2022/03/11 07:16:45;;;;;;;12.95;7.53;;;;;;;-6.95;100.00;101789.80;1691234;83;21543;-82
2022/03/11 07:19:12;;;;;;;17.67;9.53;;;;;;;-6.81;100.00;101787.50;1657145;85;21642;-82
2022/03/11 07:21:42;;;;;;;20.88;10.65;;;;;;;-6.66;100.00;101786.89;1710651;82;21113;-84
2022/03/11 07:24:09;;;;;;;15.80;9.63;;;;;;;-6.50;100.00;101787.95;1717666;82;21180;-84
2022/03/11 07:26:36;;;;;;;18.67;11.10;;;;;;;-6.55;100.00;101788.31;1717708;83;21065;-81
2022/03/11 07:29:04;;;;;;;18.65;9.65;;;;;;;-6.55;100.00;101794.66;1714844;82;21101;-83
2022/03/11 07:31:31;;;;;;;21.50;13.90;;;;;;;-6.45;100.00;101781.29;1690383;82;21590;-82
2022/03/11 07:34:00;;;;;;;17.75;10.63;;;;;;;-6.32;100.00;101786.52;1689363;83;21029;-80
2022/03/11 07:36:27;;;;;;;15.40;9.10;;;;;;;-6.29;100.00;101782.77;1689883;83;21253;-82
2022/03/11 07:38:53;;;;;;;19.25;8.80;;;;;;;-6.36;100.00;101785.63;1689804;83;22815;-81
2022/03/11 07:41:21;;;;;;;13.50;8.23;;;;;;;-6.43;100.00;101781.30;1689654;83;21520;-82
2022/03/11 07:43:47;;;;;;;14.50;8.13;;;;;;;-6.55;100.00;101787.05;1690009;83;21642;-82
2022/03/11 07:46:16;;;;;;;15.10;8.70;;;;;;;-6.62;100.00;101787.36;1689766;83;21065;-81
2022/03/11 07:48:44;;;;;;;21.10;10.18;;;;;;;-6.65;100.00;101782.27;1690237;83;21046;-83
2022/03/11 07:51:11;;;;;;;17.17;9.45;;;;;;;-6.59;100.00;101784.88;1689799;83;21081;-82
2022/03/11 07:53:38;;;;;;;19.07;10.90;;;;;;;-6.49;100.00;101783.33;1689673;83;21085;-83
2022/03/11 07:56:07;;;;;;;15.10;10.00;;;;;;;-6.37;100.00;101783.91;1689787;83;21089;-83
2022/03/11 07:58:34;;;;;;;67.32;25.45;;;;;;;-6.12;100.00;101798.19;1689561;83;21623;-83
2022/03/11 08:01:09;;;;;;;45.30;19.77;;;;;;;-5.86;100.00;101787.06;1689916;83;21894;-85
2022/03/11 08:03:38;;;;;;;31.60;18.80;;;;;;;-5.57;100.00;101791.63;1689796;83;21014;-81
2022/03/11 08:06:11;;;;;;;24.80;14.33;;;;;;;-5.39;100.00;101790.53;1689798;83;21014;-81
2022/03/11 08:08:39;;;;;;;26.65;15.00;;;;;;;-5.23;100.00;101795.75;1689694;83;21057;-81
2022/03/11 08:11:13;;;;;;;15.35;8.68;;;;;;;-5.04;100.00;101787.03;1690933;82;21100;-81
2022/03/11 08:13:42;;;;;;;25.77;13.00;;;;;;;-5.00;100.00;101786.21;1704187;83;21248;-83
2022/03/11 08:16:10;;;;;;;17.35;10.35;;;;;;;-5.08;100.00;101789.54;1718261;82;21046;-83
2022/03/11 08:18:40;;;;;;;;;;;;;;;-5.12;100.00;101794.17;1720988;82;21120;-82
2022/03/11 08:21:08;;;;;;;13.38;7.75;;;;;;;-5.13;100.00;101791.63;1718348;82;20506;-83
2022/03/11 08:23:35;;;;;;;15.75;8.13;;;;;;;-5.12;100.00;101795.84;1696223;83;21077;-82
2022/03/11 08:26:03;;;;;;;15.58;9.30;;;;;;;-5.16;100.00;101797.94;1690068;83;21250;-82
2022/03/11 08:28:30;;;;;;;14.43;8.48;;;;;;;-5.28;100.00;101798.68;1699816;82;21050;-83
2022/03/11 08:30:57;;;;;;;16.35;9.98;;;;;;;-5.46;100.00;101804.00;1691193;83;21105;-81
2022/03/11 08:33:24;;;;;;;18.42;11.40;;;;;;;-5.57;100.00;101794.17;1689895;83;21101;-81
2022/03/11 08:35:53;;;;;;;24.23;15.30;;;;;;;-5.63;100.00;101803.83;1689832;83;20967;-83
2022/03/11 08:38:20;;;;;;;18.92;11.48;;;;;;;-5.69;100.00;101799.96;1689587;83;21167;-84
2022/03/11 08:40:47;;;;;;;24.92;14.13;;;;;;;-5.73;100.00;101805.82;1689732;83;21023;-83
2022/03/11 08:43:14;;;;;;;22.25;12.65;;;;;;;-5.83;100.00;101812.48;1684400;83;21073;-82
2022/03/11 08:45:42;;;;;;;18.42;11.12;;;;;;;-5.96;100.00;101815.68;1701309;82;21097;-83
2022/03/11 08:48:10;;;;;;;17.50;10.15;;;;;;;-5.98;100.00;101816.10;1710622;82;21109;-82
2022/03/11 08:50:37;;;;;;;16.48;9.70;;;;;;;-5.92;100.00;101813.20;1688976;83;21133;-83
2022/03/11 08:53:08;;;;;;;17.67;10.45;;;;;;;-5.78;100.00;101817.19;1691562;82;21589;-83
2022/03/11 08:55:35;;;;;;;20.35;12.58;;;;;;;-5.66;100.00;101816.48;1706575;83;21109;-83
2022/03/11 08:58:01;;;;;;;20.88;12.03;;;;;;;-5.55;100.00;101812.78;1718459;82;21553;-83
2022/03/11 09:00:29;;;;;;;19.50;10.08;;;;;;;-5.51;100.00;101814.53;1718130;82;21784;-84
2022/03/11 09:02:55;;;;;;;16.57;9.60;;;;;;;-5.48;100.00;101813.72;1717726;82;21227;-82
2022/03/11 09:05:23;;;;;;;26.25;14.58;;;;;;;-5.42;100.00;101818.45;1698262;83;21148;-83
2022/03/11 09:07:51;;;;;;;13.75;8.28;;;;;;;-5.34;100.00;101825.29;1689300;83;21543;-84
2022/03/11 09:10:19;;;;;;;14.23;9.63;;;;;;;-5.26;100.00;101821.98;1670549;83;20994;-83
2022/03/11 09:12:47;;;;;;;13.20;8.60;;;;;;;-5.16;100.00;101820.37;1708964;82;21693;-84
2022/03/11 09:15:15;;;;;;;19.52;11.33;;;;;;;-5.03;100.00;101822.61;1706152;82;21807;-85
2022/03/11 09:17:45;;;;;;;18.50;10.43;;;;;;;-4.95;100.00;101829.87;1701356;82;21121;-83
2022/03/11 09:20:14;;;;;;;14.25;9.68;;;;;;;-4.89;100.00;101821.91;1688738;83;21108;-87
2022/03/11 09:22:42;;;;;;;14.80;8.85;;;;;;;-4.87;100.00;101825.28;1689191;83;21077;-84
2022/03/11 09:25:11;;;;;;;19.15;10.93;;;;;;;-4.92;100.00;101831.59;1648959;85;21070;-85
2022/03/11 09:27:39;;;;;;;21.35;12.95;;;;;;;-5.01;100.00;101836.63;1677645;80;21081;-84
2022/03/11 09:30:09;;;;;;;18.65;11.80;;;;;;;-5.11;100.00;101836.53;1776188;79;21660;-84
2022/03/11 09:32:37;;;;;;;24.72;14.38;;;;;;;-5.22;100.00;101834.28;1775473;80;21140;-84
2022/03/11 09:35:08;;;;;;;33.53;20.75;;;;;;;-5.34;100.00;101832.48;1771568;80;21618;-83
2022/03/11 09:37:37;;;;;;;38.42;20.32;;;;;;;-5.31;100.00;101836.33;1814112;78;21132;-83
2022/03/11 09:40:10;;;;;;;26.87;16.80;;;;;;;-5.23;100.00;101835.12;1805479;77;21076;-87
2022/03/11 09:42:37;;;;;;;22.40;12.35;;;;;;;-5.07;100.00;101835.70;1803022;78;20993;-85
2022/03/11 09:45:06;;;;;;;23.30;13.48;;;;;;;-4.86;100.00;101840.56;1805817;79;21042;-84
2022/03/11 09:47:40;;;;;;;26.80;15.43;;;;;;;-4.77;100.00;101845.70;1789427;77;21303;-84
2022/03/11 09:50:08;;;;;;;22.90;13.75;;;;;;;-4.71;100.00;101841.52;1755870;79;21103;-85
2022/03/11 09:52:37;;;;;;;28.77;15.88;;;;;;;-4.64;100.00;101835.64;1757289;80;21254;-86
2022/03/11 09:55:05;;;;;;;20.62;11.93;;;;;;;-4.46;100.00;101833.65;1816645;77;21479;-85
2022/03/11 09:57:32;;;;;;;18.45;11.38;;;;;;;-4.32;100.00;101832.04;1830565;77;21609;-82
2022/03/11 09:59:59;;;;;;;15.13;8.80;;;;;;;-4.27;100.00;101834.61;1799856;77;21025;-85
2022/03/11 10:02:26;;;;;;;17.02;11.03;;;;;;;-4.34;100.00;101835.02;1808014;77;20995;-86
2022/03/11 10:05:00;;;;;;;18.12;11.65;;;;;;;-4.47;100.00;101831.54;1765162;79;21242;-86
2022/03/11 10:07:28;;;;;;;20.57;10.65;;;;;;;-4.44;100.00;101841.71;1789373;78;21060;-83
2022/03/11 10:10:01;;;;;;;30.90;15.60;;;;;;;-4.45;100.00;101836.19;1836282;78;21028;-85
2022/03/11 10:12:30;;;;;;;15.90;9.63;;;;;;;-4.47;100.00;101833.22;1775651;79;20987;-84
2022/03/11 10:15:04;;;;;;;33.65;14.83;;;;;;;-4.51;100.00;101828.96;1776456;79;21492;-86
2022/03/11 10:17:41;;;;;;;13.88;9.25;;;;;;;-4.47;100.00;101839.17;1808011;79;21860;-88
2022/03/11 10:20:15;;;;;;;14.20;8.45;;;;;;;-4.41;100.00;101838.77;1782406;79;21107;-83
2022/03/11 10:22:50;;;;;;;15.48;9.20;;;;;;;-4.54;100.00;101845.05;1780006;78;21010;-87
2022/03/11 10:25:25;;;;;;;18.82;11.45;;;;;;;-4.67;100.00;101839.02;1786336;79;21295;-85
2022/03/11 10:28:08;;;;;;;13.53;8.45;;;;;;;-4.58;100.00;101839.50;1794024;78;21002;-84
2022/03/11 10:30:41;;;;;;;14.95;8.35;;;;;;;-4.41;100.00;101834.95;1779286;79;21815;-83
2022/03/11 10:33:12;;;;;;;18.10;10.95;;;;;;;-4.34;100.00;101829.94;1763398;80;21091;-84
2022/03/11 10:35:47;;;;;;;13.72;9.05;;;;;;;-4.29;100.00;101831.23;1771402;80;21048;-84
2022/03/11 10:38:19;;;;;;;14.43;8.75;;;;;;;-4.31;100.00;101836.73;1735041;80;21448;-87
2022/03/11 10:40:57;;;;;;;15.32;9.35;;;;;;;-4.45;100.00;101824.75;1776903;80;21031;-84
2022/03/11 10:43:27;;;;;;;12.50;8.65;;;;;;;-4.52;100.00;101828.53;1780747;80;21228;-84
2022/03/11 10:46:06;;;;;;;17.15;10.28;;;;;;;-4.46;100.00;101835.79;1776586;79;21058;-85
2022/03/11 10:48:51;;;;;;;13.40;9.03;;;;;;;-4.36;100.00;101829.06;1765846;80;21007;-84
2022/03/11 10:51:33;;;;;;;13.15;8.23;;;;;;;-4.23;100.00;101821.48;1773957;80;21026;-85
2022/03/11 10:54:10;;;;;;;15.75;8.30;;;;;;;-4.17;100.00;101821.55;1800236;79;21013;-84
2022/03/11 10:56:40;;;;;;;12.90;8.45;;;;;;;-4.20;100.00;101829.16;1783437;80;21231;-84
2022/03/11 10:59:18;;;;;;;14.68;9.55;;;;;;;-4.20;100.00;101829.16;1796707;79;21053;-83
2022/03/11 11:01:45;;;;;;;15.70;8.45;;;;;;;-4.27;100.00;101828.25;1781105;80;21045;-86
2022/03/11 11:04:15;;;;;;;13.60;9.33;;;;;;;-4.32;100.00;101847.30;1752874;80;21092;-84
2022/03/11 11:06:43;;;;;;;12.73;8.55;;;;;;;-4.33;100.00;101834.18;1795041;79;21628;-85
2022/03/11 11:09:13;;;;;;;12.80;8.33;;;;;;;-4.23;100.00;101838.03;1781685;80;21555;-84
2022/03/11 11:11:44;;;;;;;12.78;8.65;;;;;;;-4.18;100.00;101824.50;1782479;80;21026;-85
2022/03/11 11:14:12;;;;;;;14.25;9.00;;;;;;;-4.15;100.00;101827.47;1797219;78;21082;-85
2022/03/11 11:16:48;;;;;;;14.13;8.70;;;;;;;-4.18;100.00;101829.59;1743012;80;21645;-82